createdAt,value
2024-05-09T00:00:47.669Z,2.41
2024-05-09T00:06:10.985Z,2.37
2024-05-09T00:11:14.549Z,2.33
2024-05-09T00:16:17.546Z,2.27
2024-05-09T00:21:20.428Z,2.20
2024-05-09T00:26:24.387Z,2.16
2024-05-09T00:31:27.132Z,2.09
2024-05-09T00:36:30.271Z,2.02
2024-05-09T00:41:33.028Z,1.92
2024-05-09T00:46:35.921Z,1.89
2024-05-09T00:51:40.089Z,1.90
2024-05-09T00:56:42.983Z,1.91
2024-05-09T01:01:46.417Z,1.88
2024-05-09T01:06:49.270Z,1.79
2024-05-09T01:11:52.079Z,1.75
2024-05-09T01:16:55.074Z,1.72
2024-05-09T01:21:57.859Z,1.66
2024-05-09T01:27:00.550Z,1.61
2024-05-09T01:32:04.829Z,1.54
2024-05-09T01:37:07.768Z,1.48
2024-05-09T01:42:10.548Z,1.45
2024-05-09T01:47:13.403Z,1.40
2024-05-09T01:52:16.278Z,1.31
2024-05-09T01:57:19.097Z,1.22
2024-05-09T02:02:21.834Z,1.17
2024-05-09T02:07:25.326Z,1.14
2024-05-09T02:12:28.199Z,1.14
2024-05-09T02:17:31.474Z,1.16
2024-05-09T02:22:34.358Z,1.19
2024-05-09T02:27:37.053Z,1.22
2024-05-09T02:32:39.843Z,1.20
2024-05-09T02:37:43.098Z,1.11
2024-05-09T02:42:45.673Z,1.00
2024-05-09T02:47:48.721Z,0.94
2024-05-09T02:52:51.523Z,0.91
2024-05-09T02:57:54.648Z,0.93
2024-05-09T03:02:57.441Z,0.92
2024-05-09T03:08:00.411Z,0.91
2024-05-09T03:13:12.646Z,0.94
2024-05-09T03:18:17.150Z,1.04
2024-05-09T03:23:19.972Z,1.14
2024-05-09T03:28:22.663Z,1.26
2024-05-09T03:33:26.101Z,1.38
2024-05-09T03:38:29.159Z,1.57
2024-05-09T03:43:31.913Z,1.75
2024-05-09T03:48:36.109Z,1.89
2024-05-09T03:53:39.004Z,1.98
2024-05-09T03:58:42.045Z,2.04
2024-05-09T04:03:44.969Z,2.12
2024-05-09T04:08:47.892Z,2.28
2024-05-09T04:13:50.630Z,2.49
2024-05-09T04:18:53.438Z,2.69
2024-05-09T04:23:56.251Z,2.90
2024-05-09T04:28:58.959Z,3.08
2024-05-09T04:34:02.157Z,3.34
2024-05-09T04:39:04.778Z,3.64
2024-05-09T04:44:07.562Z,3.95
2024-05-09T04:49:10.402Z,4.24
2024-05-09T04:54:25.724Z,4.47
2024-05-09T04:59:33.183Z,4.76
2024-05-09T05:04:35.975Z,5.10
2024-05-09T05:09:38.703Z,5.51
2024-05-09T05:14:41.424Z,5.90
2024-05-09T05:19:44.784Z,6.32
2024-05-09T05:24:47.718Z,6.76
2024-05-09T05:29:50.447Z,7.21
2024-05-09T05:34:53.271Z,7.65
2024-05-09T05:39:56.357Z,8.06
2024-05-09T05:44:58.913Z,8.38
2024-05-09T05:50:02.217Z,8.61
2024-05-09T05:55:06.188Z,8.81
2024-05-09T06:00:15.141Z,9.07
2024-05-09T06:05:21.211Z,9.32
2024-05-09T06:10:36.986Z,9.58
2024-05-09T06:15:43.901Z,9.79
2024-05-09T06:20:48.001Z,10.00
2024-05-09T06:25:53.580Z,10.28
2024-05-09T06:30:58.458Z,10.56
2024-05-09T06:37:42.307Z,10.81
2024-05-09T06:42:50.340Z,11.21
2024-05-09T06:47:55.634Z,11.49
2024-05-09T06:52:59.276Z,11.79
2024-05-09T06:58:04.023Z,12.14
2024-05-09T07:03:16.905Z,12.28
2024-05-09T07:08:21.218Z,12.31
2024-05-09T07:13:23.818Z,12.30
2024-05-09T07:18:26.640Z,12.35
2024-05-09T07:23:29.582Z,12.54
2024-05-09T07:28:33.587Z,12.72
2024-05-09T07:33:40.202Z,12.84
2024-05-09T07:38:43.002Z,13.00
2024-05-09T07:43:45.966Z,13.09
2024-05-09T07:53:57.110Z,13.27
2024-05-09T07:59:02.507Z,13.50
2024-05-09T08:04:05.675Z,13.69
2024-05-09T08:09:13.877Z,13.70
2024-05-09T08:14:31.401Z,13.74
2024-05-09T08:19:34.900Z,13.77
2024-05-09T08:24:55.356Z,13.90
2024-05-09T08:30:24.606Z,13.95
2024-05-09T08:35:46.853Z,14.13
2024-05-09T08:40:50.917Z,14.29
2024-05-09T08:45:58.194Z,14.53
2024-05-09T08:51:06.080Z,14.73
2024-05-09T08:56:11.198Z,14.65
2024-05-09T09:01:14.258Z,14.79
2024-05-09T09:06:21.520Z,15.17
2024-05-09T09:11:24.215Z,15.51
2024-05-09T09:16:35.936Z,15.75
2024-05-09T09:21:38.602Z,15.94
2024-05-09T09:26:45.490Z,16.29
2024-05-09T09:32:00.728Z,16.80
2024-05-09T09:37:05.682Z,17.15
2024-05-09T09:42:11.812Z,17.36
2024-05-09T09:47:16.968Z,17.11
2024-05-09T09:52:20.590Z,16.93
2024-05-09T09:57:23.830Z,16.74
2024-05-09T10:02:26.430Z,16.75
2024-05-09T10:07:30.570Z,16.81
2024-05-09T10:12:38.935Z,16.75
2024-05-09T10:17:50.878Z,16.77
2024-05-09T10:22:53.601Z,16.84
2024-05-09T10:27:56.390Z,16.81
2024-05-09T10:33:00.107Z,16.90
2024-05-09T10:38:06.427Z,16.95
2024-05-09T10:43:09.445Z,17.01
2024-05-09T10:48:12.437Z,17.00
2024-05-09T10:53:15.141Z,16.98
2024-05-09T10:58:17.864Z,17.02
2024-05-09T11:03:23.721Z,17.01
2024-05-09T11:08:26.857Z,17.00
2024-05-09T11:13:33.998Z,16.93
2024-05-09T11:18:39.006Z,16.94
2024-05-09T11:23:42.218Z,16.97
2024-05-09T11:28:46.261Z,17.11
2024-05-09T11:33:51.725Z,17.25
2024-05-09T11:38:54.859Z,17.33
2024-05-09T11:43:58.095Z,17.50
2024-05-09T11:49:01.875Z,17.64
2024-05-09T11:54:04.603Z,17.96
2024-05-09T11:59:07.521Z,18.17
2024-05-09T12:04:10.372Z,18.33
2024-05-09T12:09:14.998Z,18.59
2024-05-09T12:14:26.804Z,18.62
2024-05-09T12:19:29.871Z,18.68
2024-05-09T12:24:32.810Z,18.71
2024-05-09T12:29:38.251Z,18.79
2024-05-09T12:34:41.880Z,18.93
2024-05-09T12:39:45.884Z,19.21
2024-05-09T12:44:49.120Z,19.09
2024-05-09T12:49:51.899Z,19.00
2024-05-09T12:54:54.833Z,18.99
2024-05-09T12:59:57.641Z,19.04
2024-05-09T13:05:00.314Z,19.12
2024-05-09T13:10:03.165Z,19.28
2024-05-09T13:15:06.597Z,19.36
2024-05-09T13:20:15.048Z,19.37
2024-05-09T13:25:24.995Z,19.44
2024-05-09T13:30:35.602Z,19.57
2024-05-09T13:35:47.177Z,19.62
2024-05-09T13:40:53.001Z,19.75
2024-05-09T13:45:57.129Z,19.72
2024-05-09T13:50:59.967Z,20.18
2024-05-09T13:56:02.733Z,21.13
2024-05-09T14:01:05.540Z,21.88
2024-05-09T14:06:11.267Z,22.48
2024-05-09T14:11:15.669Z,23.39
2024-05-09T14:16:18.489Z,23.81
2024-05-09T14:21:21.239Z,24.27
2024-05-09T14:26:26.089Z,24.84
2024-05-09T14:31:28.875Z,25.72
2024-05-09T14:36:33.179Z,26.28
2024-05-09T14:41:35.848Z,26.63
2024-05-09T14:46:39.670Z,26.93
2024-05-09T14:51:46.855Z,26.90
2024-05-09T14:56:49.514Z,27.23
2024-05-09T15:01:52.207Z,27.56
2024-05-09T15:06:56.532Z,27.71
2024-05-09T15:11:59.211Z,28.08
2024-05-09T15:17:02.538Z,28.78
2024-05-09T15:22:05.264Z,29.40
2024-05-09T15:27:08.033Z,30.19
2024-05-09T15:32:10.680Z,30.36
2024-05-09T15:37:13.766Z,30.43
2024-05-09T15:42:16.496Z,30.57
2024-05-09T15:47:20.375Z,31.02
2024-05-09T15:52:23.089Z,31.40
2024-05-09T15:57:25.998Z,31.07
2024-05-09T16:02:28.708Z,30.43
2024-05-09T16:07:31.659Z,30.93
2024-05-09T16:12:34.310Z,31.48
2024-05-09T16:17:37.135Z,31.24
2024-05-09T16:22:39.818Z,31.10
2024-05-09T16:27:42.466Z,31.09
2024-05-09T16:32:46.195Z,31.63
2024-05-09T16:37:49.449Z,31.50
2024-05-09T16:42:52.240Z,31.93
2024-05-09T16:47:55.810Z,32.54
2024-05-09T16:52:58.843Z,32.74
2024-05-09T16:58:02.208Z,32.29
2024-05-09T17:03:05.849Z,30.89
2024-05-09T17:08:08.936Z,30.59
2024-05-09T17:13:11.598Z,30.71
2024-05-09T17:18:14.686Z,30.77
2024-05-09T17:23:17.501Z,28.98
2024-05-09T17:28:20.390Z,26.41
2024-05-09T17:33:23.405Z,24.70
2024-05-09T17:38:26.176Z,23.44
2024-05-09T17:43:28.841Z,21.86
2024-05-09T17:48:31.686Z,20.83
2024-05-09T17:53:34.535Z,19.86
2024-05-09T17:58:37.194Z,19.01
2024-05-09T18:03:40.122Z,18.34
2024-05-09T18:08:42.931Z,17.73
2024-05-09T18:13:45.990Z,17.13
2024-05-09T18:18:48.698Z,16.49
2024-05-09T18:23:53.958Z,15.86
2024-05-09T18:28:57.588Z,15.27
2024-05-09T18:34:00.259Z,14.75
2024-05-09T18:39:03.239Z,14.28
2024-05-09T18:44:05.959Z,13.83
2024-05-09T18:49:09.342Z,13.43
2024-05-09T18:54:12.573Z,13.07
2024-05-09T18:59:15.178Z,12.71
2024-05-09T19:04:19.044Z,12.39
2024-05-09T19:09:22.094Z,12.11
2024-05-09T19:14:25.202Z,11.86
2024-05-09T19:19:28.100Z,11.67
2024-05-09T19:24:30.913Z,11.52
2024-05-09T19:29:33.714Z,11.37
2024-05-09T19:34:36.411Z,11.19
2024-05-09T19:39:39.186Z,11.01
2024-05-09T19:44:41.774Z,10.85
2024-05-09T19:49:44.566Z,10.72
2024-05-09T19:54:49.886Z,10.62
2024-05-09T19:59:52.541Z,10.54
2024-05-09T20:04:55.334Z,10.42
2024-05-09T20:09:58.158Z,10.28
2024-05-09T20:15:00.868Z,10.14
2024-05-09T20:20:06.022Z,10.01
2024-05-09T20:25:11.896Z,9.89
2024-05-09T20:30:21.034Z,9.85
2024-05-09T20:35:31.852Z,9.84
2024-05-09T20:40:37.848Z,9.80
2024-05-09T20:45:42.384Z,9.67
2024-05-09T20:50:45.127Z,9.47
2024-05-09T20:55:47.728Z,9.30
2024-05-09T21:00:50.412Z,9.14
2024-05-09T21:05:53.127Z,9.05
2024-05-09T21:10:55.863Z,9.05
2024-05-09T21:15:58.856Z,9.07
2024-05-09T21:21:01.613Z,9.10
2024-05-09T21:26:06.197Z,9.11
2024-05-09T21:31:09.264Z,9.12
2024-05-09T21:36:11.740Z,9.17
2024-05-09T21:41:14.343Z,9.22
2024-05-09T21:46:17.134Z,9.23
2024-05-09T21:51:19.759Z,9.20
2024-05-09T21:56:22.299Z,9.09
2024-05-09T22:01:25.057Z,8.95
2024-05-09T22:06:27.708Z,8.87
2024-05-09T22:11:31.120Z,8.82
2024-05-09T22:16:33.787Z,8.77
2024-05-09T22:21:36.402Z,8.68
2024-05-09T22:26:39.023Z,8.57
2024-05-09T22:31:41.639Z,8.45
2024-05-09T22:36:44.214Z,8.36
2024-05-09T22:41:46.804Z,8.27
2024-05-09T22:46:49.402Z,8.20
2024-05-09T22:51:52.111Z,8.08
2024-05-09T22:56:54.707Z,8.01
2024-05-09T23:01:57.301Z,7.96
2024-05-09T23:06:59.980Z,7.92
2024-05-09T23:12:02.700Z,7.87
2024-05-09T23:17:05.399Z,7.80
2024-05-09T23:22:08.342Z,7.77
2024-05-09T23:27:11.017Z,7.82
2024-05-09T23:32:13.713Z,7.86
2024-05-09T23:37:16.445Z,7.86
2024-05-09T23:42:19.280Z,7.84
2024-05-09T23:47:22.041Z,7.89
2024-05-09T23:52:24.814Z,7.99
2024-05-09T23:57:27.482Z,8.04
